sensor_id;sensor_type;location;lat;lon;timestamp;pressure;altitude;pressure_sealevel;temperature;humidity
71299;BME280;59083;47.974;21.722;2022-10-16T00:02:39;101088.63;;;10.53;98.63
71299;BME280;59083;47.974;21.722;2022-10-16T00:05:42;101089.94;;;10.49;98.87
71299;BME280;59083;47.974;21.722;2022-10-16T00:08:44;101094.63;;;10.47;98.82
71299;BME280;59083;47.974;21.722;2022-10-16T00:11:46;101090.31;;;10.46;98.81
71299;BME280;59083;47.974;21.722;2022-10-16T00:14:47;101087.44;;;10.55;99.05
71299;BME280;59083;47.974;21.722;2022-10-16T00:17:48;101091.63;;;10.58;98.92
71299;BME280;59083;47.974;21.722;2022-10-16T00:20:49;101097.59;;;10.60;98.85
71299;BME280;59083;47.974;21.722;2022-10-16T00:23:53;101097.59;;;10.60;98.93
71299;BME280;59083;47.974;21.722;2022-10-16T00:26:54;101111.94;;;10.59;98.97
71299;BME280;59083;47.974;21.722;2022-10-16T00:29:55;101102.44;;;10.56;98.89
71299;BME280;59083;47.974;21.722;2022-10-16T00:32:56;101101.97;;;10.53;98.86
71299;BME280;59083;47.974;21.722;2022-10-16T00:35:59;101101.97;;;10.53;99.08
71299;BME280;59083;47.974;21.722;2022-10-16T00:39:01;101104.13;;;10.41;98.85
71299;BME280;59083;47.974;21.722;2022-10-16T00:42:03;101110.12;;;10.35;99.04
71299;BME280;59083;47.974;21.722;2022-10-16T00:45:04;101107.97;;;10.30;99.55
71299;BME280;59083;47.974;21.722;2022-10-16T00:48:09;101107.28;;;10.20;99.74
71299;BME280;59083;47.974;21.722;2022-10-16T00:51:12;101121.97;;;10.16;99.81
71299;BME280;59083;47.974;21.722;2022-10-16T00:54:21;101110.78;;;10.13;99.91
71299;BME280;59083;47.974;21.722;2022-10-16T00:57:24;101118.25;;;10.09;100.00
71299;BME280;59083;47.974;21.722;2022-10-16T01:00:26;101121.59;;;9.95;100.00
71299;BME280;59083;47.974;21.722;2022-10-16T01:03:31;101121.44;;;9.97;100.00
71299;BME280;59083;47.974;21.722;2022-10-16T01:06:38;101126.91;;;9.95;100.00
71299;BME280;59083;47.974;21.722;2022-10-16T01:13:07;101129.88;;;9.92;100.00
71299;BME280;59083;47.974;21.722;2022-10-16T01:16:17;101140.88;;;9.89;100.00
71299;BME280;59083;47.974;21.722;2022-10-16T01:20:03;101144.69;;;9.86;100.00
71299;BME280;59083;47.974;21.722;2022-10-16T01:23:10;101145.19;;;9.82;100.00
71299;BME280;59083;47.974;21.722;2022-10-16T01:33:11;101148.50;;;9.76;100.00
71299;BME280;59083;47.974;21.722;2022-10-16T01:36:19;101143.19;;;9.68;100.00
71299;BME280;59083;47.974;21.722;2022-10-16T01:39:25;101156.44;;;9.60;100.00
71299;BME280;59083;47.974;21.722;2022-10-16T01:42:35;101153.94;;;9.58;100.00
71299;BME280;59083;47.974;21.722;2022-10-16T01:45:37;101154.97;;;9.65;100.00
71299;BME280;59083;47.974;21.722;2022-10-16T01:48:39;101151.81;;;9.62;100.00
71299;BME280;59083;47.974;21.722;2022-10-16T01:51:43;101160.78;;;9.69;100.00
71299;BME280;59083;47.974;21.722;2022-10-16T01:54:47;101162.28;;;9.63;100.00
71299;BME280;59083;47.974;21.722;2022-10-16T01:57:51;101151.78;;;9.53;100.00
71299;BME280;59083;47.974;21.722;2022-10-16T02:00:54;101159.72;;;9.45;100.00
71299;BME280;59083;47.974;21.722;2022-10-16T02:04:01;101167.53;;;9.47;100.00
71299;BME280;59083;47.974;21.722;2022-10-16T02:07:05;101157.75;;;9.47;100.00
71299;BME280;59083;47.974;21.722;2022-10-16T02:10:07;101169.72;;;9.51;100.00
71299;BME280;59083;47.974;21.722;2022-10-16T02:13:19;101172.87;;;9.47;100.00
71299;BME280;59083;47.974;21.722;2022-10-16T02:16:23;101166.22;;;9.43;100.00
71299;BME280;59083;47.974;21.722;2022-10-16T02:19:33;101174.88;;;9.45;100.00
71299;BME280;59083;47.974;21.722;2022-10-16T02:22:39;101179.31;;;9.36;100.00
71299;BME280;59083;47.974;21.722;2022-10-16T02:25:44;101178.63;;;9.34;100.00
71299;BME280;59083;47.974;21.722;2022-10-16T02:28:53;101187.28;;;9.28;100.00
71299;BME280;59083;47.974;21.722;2022-10-16T02:32:00;101184.91;;;9.25;100.00
71299;BME280;59083;47.974;21.722;2022-10-16T02:35:04;101185.53;;;9.19;100.00
71299;BME280;59083;47.974;21.722;2022-10-16T02:38:06;101198.47;;;9.14;100.00
71299;BME280;59083;47.974;21.722;2022-10-16T02:41:09;101198.59;;;9.04;100.00
71299;BME280;59083;47.974;21.722;2022-10-16T02:44:11;101204.38;;;9.00;100.00
71299;BME280;59083;47.974;21.722;2022-10-16T02:47:12;101185.25;;;8.96;100.00
71299;BME280;59083;47.974;21.722;2022-10-16T02:50:14;101190.28;;;8.99;100.00
71299;BME280;59083;47.974;21.722;2022-10-16T02:53:15;101185.59;;;8.93;100.00
71299;BME280;59083;47.974;21.722;2022-10-16T02:56:16;101191.75;;;8.94;100.00
71299;BME280;59083;47.974;21.722;2022-10-16T02:59:18;101188.69;;;8.89;100.00
71299;BME280;59083;47.974;21.722;2022-10-16T03:02:20;101189.00;;;8.86;100.00
71299;BME280;59083;47.974;21.722;2022-10-16T03:05:21;101192.66;;;8.85;100.00
71299;BME280;59083;47.974;21.722;2022-10-16T03:08:22;101196.16;;;8.85;100.00
71299;BME280;59083;47.974;21.722;2022-10-16T03:11:26;101205.91;;;8.77;100.00
71299;BME280;59083;47.974;21.722;2022-10-16T03:14:27;101201.03;;;8.72;100.00
71299;BME280;59083;47.974;21.722;2022-10-16T03:17:28;101200.88;;;8.74;100.00
71299;BME280;59083;47.974;21.722;2022-10-16T03:20:29;101200.19;;;8.71;100.00
71299;BME280;59083;47.974;21.722;2022-10-16T03:23:31;101204.53;;;8.73;100.00
71299;BME280;59083;47.974;21.722;2022-10-16T03:26:32;101214.13;;;8.65;100.00
71299;BME280;59083;47.974;21.722;2022-10-16T03:29:33;101208.03;;;8.73;100.00
71299;BME280;59083;47.974;21.722;2022-10-16T03:32:35;101204.31;;;8.66;100.00
71299;BME280;59083;47.974;21.722;2022-10-16T03:35:36;101214.56;;;8.61;100.00
71299;BME280;59083;47.974;21.722;2022-10-16T03:38:37;101212.53;;;8.55;100.00
71299;BME280;59083;47.974;21.722;2022-10-16T03:41:38;101218.69;;;8.55;100.00
71299;BME280;59083;47.974;21.722;2022-10-16T03:44:40;101218.69;;;8.55;100.00
71299;BME280;59083;47.974;21.722;2022-10-16T03:47:41;101220.97;;;8.50;100.00
71299;BME280;59083;47.974;21.722;2022-10-16T03:50:42;101229.75;;;8.51;100.00
71299;BME280;59083;47.974;21.722;2022-10-16T03:53:44;101230.84;;;8.40;100.00
71299;BME280;59083;47.974;21.722;2022-10-16T03:56:45;101246.25;;;8.37;100.00
71299;BME280;59083;47.974;21.722;2022-10-16T03:59:46;101245.72;;;8.33;100.00
71299;BME280;59083;47.974;21.722;2022-10-16T04:02:47;101247.94;;;8.28;100.00
71299;BME280;59083;47.974;21.722;2022-10-16T04:05:49;101246.28;;;8.27;100.00
71299;BME280;59083;47.974;21.722;2022-10-16T04:08:50;101245.91;;;8.22;100.00
71299;BME280;59083;47.974;21.722;2022-10-16T04:11:52;101238.72;;;8.32;100.00
71299;BME280;59083;47.974;21.722;2022-10-16T04:14:53;101229.53;;;8.44;100.00
71299;BME280;59083;47.974;21.722;2022-10-16T04:17:54;101239.19;;;8.45;100.00
71299;BME280;59083;47.974;21.722;2022-10-16T04:20:55;101214.75;;;8.42;100.00
71299;BME280;59083;47.974;21.722;2022-10-16T04:23:56;101234.09;;;8.52;100.00
71299;BME280;59083;47.974;21.722;2022-10-16T04:26:58;101237.75;;;8.51;100.00
71299;BME280;59083;47.974;21.722;2022-10-16T04:29:59;101239.19;;;8.45;100.00
71299;BME280;59083;47.974;21.722;2022-10-16T04:33:01;101230.22;;;8.46;100.00
71299;BME280;59083;47.974;21.722;2022-10-16T04:36:03;101242.53;;;8.47;100.00
71299;BME280;59083;47.974;21.722;2022-10-16T04:39:04;101242.22;;;8.50;100.00
71299;BME280;59083;47.974;21.722;2022-10-16T04:42:05;101249.28;;;8.42;100.00
71299;BME280;59083;47.974;21.722;2022-10-16T04:45:07;101240.09;;;8.36;100.00
71299;BME280;59083;47.974;21.722;2022-10-16T04:48:09;101244.59;;;8.36;100.00
71299;BME280;59083;47.974;21.722;2022-10-16T04:51:10;101236.47;;;8.37;100.00
71299;BME280;59083;47.974;21.722;2022-10-16T04:54:12;101246.91;;;8.39;100.00
71299;BME280;59083;47.974;21.722;2022-10-16T04:57:13;101259.69;;;8.35;100.00
71299;BME280;59083;47.974;21.722;2022-10-16T05:00:14;101251.59;;;8.27;100.00
71299;BME280;59083;47.974;21.722;2022-10-16T05:03:15;101253.59;;;8.25;100.00
71299;BME280;59083;47.974;21.722;2022-10-16T05:06:17;101254.94;;;8.29;100.00
71299;BME280;59083;47.974;21.722;2022-10-16T05:09:18;101261.22;;;8.28;100.00
71299;BME280;59083;47.974;21.722;2022-10-16T05:12:19;101262.91;;;8.29;100.00
71299;BME280;59083;47.974;21.722;2022-10-16T05:15:20;101274.78;;;8.35;100.00
71299;BME280;59083;47.974;21.722;2022-10-16T05:18:21;101273.66;;;8.37;100.00
71299;BME280;59083;47.974;21.722;2022-10-16T05:21:22;101285.31;;;8.44;100.00
71299;BME280;59083;47.974;21.722;2022-10-16T05:24:24;101287.00;;;8.45;100.00
71299;BME280;59083;47.974;21.722;2022-10-16T05:27:25;101287.00;;;8.45;100.00
71299;BME280;59083;47.974;21.722;2022-10-16T05:30:26;101291.31;;;8.46;100.00
71299;BME280;59083;47.974;21.722;2022-10-16T05:33:27;101290.03;;;8.50;100.00
71299;BME280;59083;47.974;21.722;2022-10-16T05:36:29;101296.09;;;8.60;99.86
71299;BME280;59083;47.974;21.722;2022-10-16T05:39:30;101299.06;;;8.75;99.12
71299;BME280;59083;47.974;21.722;2022-10-16T05:42:31;101298.34;;;10.02;95.19
71299;BME280;59083;47.974;21.722;2022-10-16T05:45:33;101306.66;;;11.22;88.31
71299;BME280;59083;47.974;21.722;2022-10-16T05:48:34;101308.94;;;12.05;82.50
71299;BME280;59083;47.974;21.722;2022-10-16T05:51:35;101308.78;;;12.60;78.86
71299;BME280;59083;47.974;21.722;2022-10-16T05:54:37;101312.78;;;13.09;78.46
71299;BME280;59083;47.974;21.722;2022-10-16T05:57:38;101313.69;;;12.79;78.50
71299;BME280;59083;47.974;21.722;2022-10-16T06:00:39;101324.28;;;12.11;79.45
71299;BME280;59083;47.974;21.722;2022-10-16T06:03:41;101323.25;;;11.65;81.59
71299;BME280;59083;47.974;21.722;2022-10-16T06:06:42;101309.97;;;11.40;82.76
71299;BME280;59083;47.974;21.722;2022-10-16T06:09:44;101330.97;;;11.51;83.26
71299;BME280;59083;47.974;21.722;2022-10-16T06:12:45;101336.44;;;11.58;83.92
71299;BME280;59083;47.974;21.722;2022-10-16T06:15:46;101336.16;;;11.37;84.08
71299;BME280;59083;47.974;21.722;2022-10-16T06:18:50;101344.81;;;11.55;84.32
71299;BME280;59083;47.974;21.722;2022-10-16T06:21:52;101351.47;;;11.67;83.72
71299;BME280;59083;47.974;21.722;2022-10-16T06:24:53;101358.50;;;11.52;84.64
71299;BME280;59083;47.974;21.722;2022-10-16T06:27:54;101355.63;;;11.70;84.91
71299;BME280;59083;47.974;21.722;2022-10-16T06:30:59;101358.78;;;11.89;84.73
71299;BME280;59083;47.974;21.722;2022-10-16T06:34:01;101371.94;;;11.91;85.26
71299;BME280;59083;47.974;21.722;2022-10-16T06:37:02;101381.47;;;11.85;85.52
71299;BME280;59083;47.974;21.722;2022-10-16T06:40:04;101390.16;;;11.63;86.10
71299;BME280;59083;47.974;21.722;2022-10-16T06:43:06;101396.53;;;11.54;86.26
71299;BME280;59083;47.974;21.722;2022-10-16T06:46:10;101402.53;;;11.64;86.43
71299;BME280;59083;47.974;21.722;2022-10-16T06:49:11;101405.72;;;11.76;87.12
71299;BME280;59083;47.974;21.722;2022-10-16T06:52:12;101404.03;;;11.75;87.07
71299;BME280;59083;47.974;21.722;2022-10-16T06:55:13;101393.34;;;11.67;88.07
71299;BME280;59083;47.974;21.722;2022-10-16T06:58:15;101409.53;;;11.81;87.47
71299;BME280;59083;47.974;21.722;2022-10-16T07:01:18;101413.56;;;11.77;87.49
71299;BME280;59083;47.974;21.722;2022-10-16T07:04:20;101411.16;;;11.98;87.44
71299;BME280;59083;47.974;21.722;2022-10-16T07:07:21;101421.47;;;12.10;86.09
71299;BME280;59083;47.974;21.722;2022-10-16T07:10:25;101424.47;;;12.15;86.59
71299;BME280;59083;47.974;21.722;2022-10-16T07:13:27;101426.81;;;12.18;86.11
71299;BME280;59083;47.974;21.722;2022-10-16T07:16:31;101435.31;;;12.21;86.74
71299;BME280;59083;47.974;21.722;2022-10-16T07:19:32;101426.13;;;12.24;85.92
71299;BME280;59083;47.974;21.722;2022-10-16T07:22:33;101425.53;;;12.45;85.81
71299;BME280;59083;47.974;21.722;2022-10-16T07:25:35;101424.72;;;12.36;86.03
71299;BME280;59083;47.974;21.722;2022-10-16T07:28:37;101424.03;;;12.42;85.83
71299;BME280;59083;47.974;21.722;2022-10-16T07:31:38;101429.66;;;12.16;86.23
71299;BME280;59083;47.974;21.722;2022-10-16T07:34:40;101428.66;;;12.09;87.20
71299;BME280;59083;47.974;21.722;2022-10-16T07:37:45;101427.97;;;12.23;86.80
71299;BME280;59083;47.974;21.722;2022-10-16T07:40:47;101420.09;;;12.30;86.13
71299;BME280;59083;47.974;21.722;2022-10-16T07:43:50;101425.78;;;12.27;85.84
71299;BME280;59083;47.974;21.722;2022-10-16T07:46:52;101431.41;;;12.40;85.72
71299;BME280;59083;47.974;21.722;2022-10-16T07:49:53;101429.75;;;12.39;85.79
71299;BME280;59083;47.974;21.722;2022-10-16T07:52:54;101432.88;;;12.51;84.86
71299;BME280;59083;47.974;21.722;2022-10-16T07:56:04;101440.28;;;12.71;83.87
71299;BME280;59083;47.974;21.722;2022-10-16T07:59:06;101440.28;;;12.71;83.89
71299;BME280;59083;47.974;21.722;2022-10-16T08:02:07;101440.41;;;12.78;82.62
71299;BME280;59083;47.974;21.722;2022-10-16T08:05:09;101440.44;;;13.01;82.21
71299;BME280;59083;47.974;21.722;2022-10-16T08:08:16;101435.38;;;13.14;81.92
71299;BME280;59083;47.974;21.722;2022-10-16T08:11:18;101440.91;;;13.04;82.07
71299;BME280;59083;47.974;21.722;2022-10-16T08:14:19;101438.75;;;13.00;81.83
71299;BME280;59083;47.974;21.722;2022-10-16T08:17:20;101443.53;;;13.20;81.67
71299;BME280;59083;47.974;21.722;2022-10-16T08:20:21;101449.28;;;13.32;81.27
71299;BME280;59083;47.974;21.722;2022-10-16T08:23:23;101459.28;;;13.38;80.69
71299;BME280;59083;47.974;21.722;2022-10-16T08:26:27;101455.47;;;13.55;80.42
71299;BME280;59083;47.974;21.722;2022-10-16T08:29:28;101455.22;;;13.65;79.97
71299;BME280;59083;47.974;21.722;2022-10-16T08:32:29;101446.34;;;13.64;80.58
71299;BME280;59083;47.974;21.722;2022-10-16T08:35:31;101464.47;;;13.77;77.76
71299;BME280;59083;47.974;21.722;2022-10-16T08:38:33;101464.28;;;13.79;78.08
71299;BME280;59083;47.974;21.722;2022-10-16T08:48:37;101454.06;;;14.26;75.69
71299;BME280;59083;47.974;21.722;2022-10-16T08:51:42;101458.00;;;14.38;74.33
71299;BME280;59083;47.974;21.722;2022-10-16T08:54:48;101452.16;;;14.50;74.75
71299;BME280;59083;47.974;21.722;2022-10-16T08:57:52;101455.03;;;14.63;73.33
71299;BME280;59083;47.974;21.722;2022-10-16T09:00:59;101454.53;;;14.74;73.44
71299;BME280;59083;47.974;21.722;2022-10-16T09:07:13;101465.47;;;14.94;71.93
71299;BME280;59083;47.974;21.722;2022-10-16T09:10:23;101456.41;;;14.95;69.25
71299;BME280;59083;47.974;21.722;2022-10-16T09:17:22;101462.91;;;15.43;68.29
71299;BME280;59083;47.974;21.722;2022-10-16T09:20:28;101467.66;;;15.62;67.78
71299;BME280;59083;47.974;21.722;2022-10-16T09:23:34;101475.59;;;15.70;67.09
71299;BME280;59083;47.974;21.722;2022-10-16T09:26:36;101470.06;;;15.78;66.70
71299;BME280;59083;47.974;21.722;2022-10-16T09:29:37;101471.19;;;15.90;65.95
71299;BME280;59083;47.974;21.722;2022-10-16T09:32:39;101477.84;;;15.94;65.46
71299;BME280;59083;47.974;21.722;2022-10-16T09:35:47;101473.38;;;16.08;64.63
71299;BME280;59083;47.974;21.722;2022-10-16T09:38:50;101475.47;;;16.12;65.10
71299;BME280;59083;47.974;21.722;2022-10-16T09:41:51;101473.91;;;16.25;64.76
71299;BME280;59083;47.974;21.722;2022-10-16T09:44:53;101480.16;;;16.32;63.14
71299;BME280;59083;47.974;21.722;2022-10-16T09:47:55;101475.00;;;16.37;63.19
71299;BME280;59083;47.974;21.722;2022-10-16T09:51:01;101472.91;;;16.60;63.37
71299;BME280;59083;47.974;21.722;2022-10-16T09:57:12;101477.13;;;16.82;62.04
71299;BME280;59083;47.974;21.722;2022-10-16T10:00:16;101470.50;;;16.78;60.90
71299;BME280;59083;47.974;21.722;2022-10-16T10:03:39;101477.09;;;16.76;62.06
71299;BME280;59083;47.974;21.722;2022-10-16T10:06:46;101473.00;;;16.86;61.42
71299;BME280;59083;47.974;21.722;2022-10-16T10:09:49;101475.94;;;17.05;61.20
71299;BME280;59083;47.974;21.722;2022-10-16T10:12:50;101466.78;;;16.79;60.19
71299;BME280;59083;47.974;21.722;2022-10-16T10:15:52;101470.94;;;16.88;59.83
71299;BME280;59083;47.974;21.722;2022-10-16T10:18:59;101467.25;;;17.09;60.55
71299;BME280;59083;47.974;21.722;2022-10-16T10:22:00;101472.28;;;17.19;60.25
71299;BME280;59083;47.974;21.722;2022-10-16T10:32:09;101465.84;;;17.20;58.53
71299;BME280;59083;47.974;21.722;2022-10-16T10:39:04;101465.66;;;17.28;58.37
71299;BME280;59083;47.974;21.722;2022-10-16T10:42:22;101458.19;;;17.43;59.08
71299;BME280;59083;47.974;21.722;2022-10-16T10:45:47;101458.84;;;17.58;59.70
71299;BME280;59083;47.974;21.722;2022-10-16T11:05:49;101464.25;;;17.58;59.15
71299;BME280;59083;47.974;21.722;2022-10-16T11:09:02;101446.25;;;17.65;57.87
71299;BME280;59083;47.974;21.722;2022-10-16T11:12:14;101444.16;;;17.67;58.13
71299;BME280;59083;47.974;21.722;2022-10-16T11:15:29;101445.38;;;17.58;58.00
71299;BME280;59083;47.974;21.722;2022-10-16T11:18:49;101446.66;;;17.69;58.17
71299;BME280;59083;47.974;21.722;2022-10-16T11:22:02;101439.38;;;17.69;57.61
71299;BME280;59083;47.974;21.722;2022-10-16T11:25:27;101436.91;;;17.74;57.46
71299;BME280;59083;47.974;21.722;2022-10-16T11:28:37;101441.44;;;17.81;56.40
71299;BME280;59083;47.974;21.722;2022-10-16T11:31:47;101436.25;;;17.86;56.50
71299;BME280;59083;47.974;21.722;2022-10-16T11:34:57;101424.66;;;17.65;56.01
71299;BME280;59083;47.974;21.722;2022-10-16T11:38:02;101433.31;;;17.54;56.36
71299;BME280;59083;47.974;21.722;2022-10-16T11:41:22;101429.44;;;17.70;57.11
71299;BME280;59083;47.974;21.722;2022-10-16T11:44:55;101427.13;;;17.73;57.32
71299;BME280;59083;47.974;21.722;2022-10-16T11:48:11;101424.63;;;17.52;58.02
71299;BME280;59083;47.974;21.722;2022-10-16T11:51:26;101423.37;;;17.55;57.41
71299;BME280;59083;47.974;21.722;2022-10-16T11:54:37;101424.44;;;17.60;57.54
71299;BME280;59083;47.974;21.722;2022-10-16T11:57:45;101424.88;;;17.70;56.93
71299;BME280;59083;47.974;21.722;2022-10-16T12:00:59;101423.81;;;17.78;57.25
71299;BME280;59083;47.974;21.722;2022-10-16T12:07:28;101414.25;;;17.89;56.56
71299;BME280;59083;47.974;21.722;2022-10-16T12:10:33;101413.03;;;17.85;57.08
71299;BME280;59083;47.974;21.722;2022-10-16T12:13:42;101422.56;;;17.81;57.59
71299;BME280;59083;47.974;21.722;2022-10-16T12:23:20;101404.34;;;17.76;56.40
71299;BME280;59083;47.974;21.722;2022-10-16T12:26:25;101408.69;;;17.70;57.02
71299;BME280;59083;47.974;21.722;2022-10-16T12:29:38;101400.38;;;17.79;56.67
71299;BME280;59083;47.974;21.722;2022-10-16T12:32:40;101401.44;;;17.71;57.11
71299;BME280;59083;47.974;21.722;2022-10-16T12:35:45;101406.78;;;17.77;56.49
71299;BME280;59083;47.974;21.722;2022-10-16T12:38:49;101411.59;;;17.82;56.82
71299;BME280;59083;47.974;21.722;2022-10-16T12:42:04;101412.00;;;17.79;56.27
71299;BME280;59083;47.974;21.722;2022-10-16T12:48:27;101411.59;;;17.62;56.88
71299;BME280;59083;47.974;21.722;2022-10-16T12:51:34;101418.84;;;17.62;56.96
71299;BME280;59083;47.974;21.722;2022-10-16T12:54:37;101418.41;;;17.58;56.86
71299;BME280;59083;47.974;21.722;2022-10-16T12:58:06;101425.47;;;17.66;56.82
71299;BME280;59083;47.974;21.722;2022-10-16T13:01:31;101416.78;;;17.70;56.83
71299;BME280;59083;47.974;21.722;2022-10-16T13:18:27;101421.97;;;17.65;57.35
71299;BME280;59083;47.974;21.722;2022-10-16T13:22:00;101430.47;;;17.62;56.72
71299;BME280;59083;47.974;21.722;2022-10-16T13:28:34;101420.72;;;17.81;56.44
71299;BME280;59083;47.974;21.722;2022-10-16T13:31:37;101426.94;;;17.88;55.63
71299;BME280;59083;47.974;21.722;2022-10-16T13:34:45;101419.03;;;17.87;55.31
71299;BME280;59083;47.974;21.722;2022-10-16T13:37:46;101425.47;;;17.86;55.29
71299;BME280;59083;47.974;21.722;2022-10-16T13:40:54;101419.44;;;17.84;56.27
71299;BME280;59083;47.974;21.722;2022-10-16T13:43:56;101423.81;;;17.85;56.03
71299;BME280;59083;47.974;21.722;2022-10-16T13:46:59;101420.47;;;17.89;55.99
71299;BME280;59083;47.974;21.722;2022-10-16T13:50:09;101409.28;;;17.86;55.81
71299;BME280;59083;47.974;21.722;2022-10-16T13:53:13;101422.12;;;17.84;56.10
71299;BME280;59083;47.974;21.722;2022-10-16T13:56:21;101427.53;;;17.84;56.15
71299;BME280;59083;47.974;21.722;2022-10-16T13:59:34;101424.25;;;17.82;56.39
71299;BME280;59083;47.974;21.722;2022-10-16T14:02:37;101426.31;;;17.80;55.68
71299;BME280;59083;47.974;21.722;2022-10-16T14:05:47;101422.97;;;17.77;56.29
71299;BME280;59083;47.974;21.722;2022-10-16T14:08:55;101430.25;;;17.70;56.65
71299;BME280;59083;47.974;21.722;2022-10-16T14:12:02;101425.72;;;17.64;56.89
71299;BME280;59083;47.974;21.722;2022-10-16T14:15:04;101429.63;;;17.68;56.60
71299;BME280;59083;47.974;21.722;2022-10-16T14:18:06;101430.47;;;17.62;57.34
71299;BME280;59083;47.974;21.722;2022-10-16T14:21:15;101418.22;;;17.53;57.79
71299;BME280;59083;47.974;21.722;2022-10-16T14:24:31;101429.19;;;17.45;58.04
71299;BME280;59083;47.974;21.722;2022-10-16T14:27:35;101422.94;;;17.38;58.36
71299;BME280;59083;47.974;21.722;2022-10-16T14:30:55;101430.44;;;17.36;58.04
71299;BME280;59083;47.974;21.722;2022-10-16T14:33:57;101425.88;;;17.30;58.28
71299;BME280;59083;47.974;21.722;2022-10-16T14:37:00;101426.06;;;17.22;58.48
71299;BME280;59083;47.974;21.722;2022-10-16T14:40:13;101433.72;;;17.12;59.26
71299;BME280;59083;47.974;21.722;2022-10-16T14:43:22;101438.44;;;17.03;59.71
71299;BME280;59083;47.974;21.722;2022-10-16T14:46:39;101443.19;;;16.94;60.25
71299;BME280;59083;47.974;21.722;2022-10-16T14:49:42;101439.03;;;16.85;61.07
71299;BME280;59083;47.974;21.722;2022-10-16T14:52:43;101442.75;;;16.84;60.82
71299;BME280;59083;47.974;21.722;2022-10-16T14:55:44;101444.44;;;16.85;60.58
71299;BME280;59083;47.974;21.722;2022-10-16T14:58:46;101439.03;;;16.85;60.37
71299;BME280;59083;47.974;21.722;2022-10-16T15:01:48;101440.22;;;16.76;61.33
71299;BME280;59083;47.974;21.722;2022-10-16T15:04:49;101437.31;;;16.71;61.38
71299;BME280;59083;47.974;21.722;2022-10-16T15:07:51;101437.75;;;16.75;61.99
71299;BME280;59083;47.974;21.722;2022-10-16T15:10:54;101426.94;;;16.62;62.35
71299;BME280;59083;47.974;21.722;2022-10-16T15:13:55;101438.97;;;16.66;62.25
71299;BME280;59083;47.974;21.722;2022-10-16T15:16:56;101441.62;;;16.59;63.01
71299;BME280;59083;47.974;21.722;2022-10-16T15:19:58;101442.16;;;16.48;63.70
71299;BME280;59083;47.974;21.722;2022-10-16T15:23:01;101435.91;;;16.41;63.83
71299;BME280;59083;47.974;21.722;2022-10-16T15:26:03;101431.31;;;16.35;63.96
71299;BME280;59083;47.974;21.722;2022-10-16T15:29:04;101435.22;;;16.26;64.30
71299;BME280;59083;47.974;21.722;2022-10-16T15:32:05;101446.97;;;16.18;65.31
71299;BME280;59083;47.974;21.722;2022-10-16T15:35:09;101438.22;;;16.09;66.08
71299;BME280;59083;47.974;21.722;2022-10-16T15:38:12;101444.81;;;16.00;66.89
71299;BME280;59083;47.974;21.722;2022-10-16T15:41:14;101442.25;;;15.92;67.12
71299;BME280;59083;47.974;21.722;2022-10-16T15:44:15;101446.31;;;15.82;67.72
71299;BME280;59083;47.974;21.722;2022-10-16T15:47:16;101449.72;;;15.69;68.32
71299;BME280;59083;47.974;21.722;2022-10-16T15:50:18;101451.09;;;15.58;68.76
71299;BME280;59083;47.974;21.722;2022-10-16T15:53:19;101465.13;;;15.54;69.35
71299;BME280;59083;47.974;21.722;2022-10-16T15:56:20;101456.50;;;15.44;70.32
71299;BME280;59083;47.974;21.722;2022-10-16T15:59:22;101462.38;;;15.32;71.19
71299;BME280;59083;47.974;21.722;2022-10-16T16:02:24;101466.81;;;15.19;71.95
71299;BME280;59083;47.974;21.722;2022-10-16T16:05:25;101470.34;;;15.05;73.94
71299;BME280;59083;47.974;21.722;2022-10-16T16:08:28;101472.25;;;14.89;74.88
71299;BME280;59083;47.974;21.722;2022-10-16T16:11:29;101470.25;;;14.77;75.41
71299;BME280;59083;47.974;21.722;2022-10-16T16:14:32;101478.13;;;14.64;76.88
71299;BME280;59083;47.974;21.722;2022-10-16T16:17:35;101479.25;;;14.55;77.96
71299;BME280;59083;47.974;21.722;2022-10-16T16:20:37;101486.38;;;14.47;78.23
71299;BME280;59083;47.974;21.722;2022-10-16T16:23:38;101492.47;;;14.41;78.32
71299;BME280;59083;47.974;21.722;2022-10-16T16:26:39;101489.47;;;14.36;79.18
71299;BME280;59083;47.974;21.722;2022-10-16T16:29:44;101498.25;;;14.30;79.50
71299;BME280;59083;47.974;21.722;2022-10-16T16:32:45;101503.34;;;14.25;79.39
71299;BME280;59083;47.974;21.722;2022-10-16T16:35:47;101501.41;;;14.19;80.00
71299;BME280;59083;47.974;21.722;2022-10-16T16:38:48;101485.97;;;14.06;80.94
71299;BME280;59083;47.974;21.722;2022-10-16T16:41:49;101501.69;;;14.10;81.39
71299;BME280;59083;47.974;21.722;2022-10-16T16:44:51;101504.25;;;14.03;81.99
71299;BME280;59083;47.974;21.722;2022-10-16T16:47:52;101508.88;;;13.94;82.82
71299;BME280;59083;47.974;21.722;2022-10-16T16:50:53;101510.44;;;13.89;83.81
71299;BME280;59083;47.974;21.722;2022-10-16T16:53:55;101524.56;;;13.83;83.84
71299;BME280;59083;47.974;21.722;2022-10-16T16:56:56;101528.28;;;13.74;83.76
71299;BME280;59083;47.974;21.722;2022-10-16T16:59:57;101531.38;;;13.62;84.00
71299;BME280;59083;47.974;21.722;2022-10-16T17:02:58;101534.16;;;13.54;84.60
71299;BME280;59083;47.974;21.722;2022-10-16T17:06:05;101545.56;;;13.48;85.49
71299;BME280;59083;47.974;21.722;2022-10-16T17:09:07;101541.94;;;13.41;85.72
71299;BME280;59083;47.974;21.722;2022-10-16T17:12:08;101551.69;;;13.34;85.93
71299;BME280;59083;47.974;21.722;2022-10-16T17:15:10;101553.03;;;13.30;86.17
71299;BME280;59083;47.974;21.722;2022-10-16T17:18:11;101554.12;;;13.21;86.75